sensor_id;sensor_type;location;lat;lon;timestamp;P1;durP1;ratioP1;P2;durP2;ratioP2
71503;SDS011;59323;50.874;7.028;2023-02-10T00:01:15;35.50;;;13.93;;
71503;SDS011;59323;50.874;7.028;2023-02-10T00:03:45;32.25;;;12.80;;
71503;SDS011;59323;50.874;7.028;2023-02-10T00:06:11;30.23;;;12.83;;
71503;SDS011;59323;50.874;7.028;2023-02-10T00:08:37;34.88;;;14.88;;
71503;SDS011;59323;50.874;7.028;2023-02-10T00:11:04;33.00;;;12.82;;
71503;SDS011;59323;50.874;7.028;2023-02-10T00:13:35;34.60;;;13.20;;
71503;SDS011;59323;50.874;7.028;2023-02-10T00:16:01;32.03;;;13.80;;
71503;SDS011;59323;50.874;7.028;2023-02-10T00:18:28;31.87;;;14.43;;
71503;SDS011;59323;50.874;7.028;2023-02-10T00:20:54;34.92;;;14.32;;
71503;SDS011;59323;50.874;7.028;2023-02-10T00:23:19;35.20;;;14.00;;
71503;SDS011;59323;50.874;7.028;2023-02-10T00:25:45;33.60;;;13.73;;
71503;SDS011;59323;50.874;7.028;2023-02-10T00:28:10;33.10;;;13.97;;
71503;SDS011;59323;50.874;7.028;2023-02-10T00:30:36;30.03;;;12.53;;
71503;SDS011;59323;50.874;7.028;2023-02-10T00:33:02;33.10;;;13.90;;
71503;SDS011;59323;50.874;7.028;2023-02-10T00:35:28;32.47;;;13.43;;
71503;SDS011;59323;50.874;7.028;2023-02-10T00:37:53;34.35;;;14.10;;
71503;SDS011;59323;50.874;7.028;2023-02-10T00:40:18;34.37;;;15.07;;
71503;SDS011;59323;50.874;7.028;2023-02-10T00:42:44;38.87;;;14.47;;
71503;SDS011;59323;50.874;7.028;2023-02-10T00:45:09;39.37;;;13.97;;
71503;SDS011;59323;50.874;7.028;2023-02-10T00:47:34;33.03;;;13.77;;
71503;SDS011;59323;50.874;7.028;2023-02-10T00:50:00;34.23;;;14.43;;
71503;SDS011;59323;50.874;7.028;2023-02-10T00:52:25;36.50;;;14.90;;
71503;SDS011;59323;50.874;7.028;2023-02-10T00:54:51;34.27;;;14.70;;
71503;SDS011;59323;50.874;7.028;2023-02-10T00:57:16;33.80;;;14.90;;
71503;SDS011;59323;50.874;7.028;2023-02-10T00:59:41;31.47;;;13.43;;
71503;SDS011;59323;50.874;7.028;2023-02-10T01:02:07;34.17;;;14.60;;
71503;SDS011;59323;50.874;7.028;2023-02-10T01:04:32;32.33;;;14.40;;
71503;SDS011;59323;50.874;7.028;2023-02-10T01:06:58;32.60;;;14.37;;
71503;SDS011;59323;50.874;7.028;2023-02-10T01:09:24;33.70;;;14.50;;
71503;SDS011;59323;50.874;7.028;2023-02-10T01:11:49;34.37;;;15.80;;
71503;SDS011;59323;50.874;7.028;2023-02-10T01:14:15;33.87;;;14.17;;
71503;SDS011;59323;50.874;7.028;2023-02-10T01:16:41;34.53;;;14.55;;
71503;SDS011;59323;50.874;7.028;2023-02-10T01:19:07;31.15;;;13.50;;
71503;SDS011;59323;50.874;7.028;2023-02-10T01:21:33;35.77;;;14.23;;
71503;SDS011;59323;50.874;7.028;2023-02-10T01:23:58;31.20;;;12.97;;
71503;SDS011;59323;50.874;7.028;2023-02-10T01:26:24;37.97;;;14.80;;
71503;SDS011;59323;50.874;7.028;2023-02-10T01:28:50;37.38;;;14.90;;
71503;SDS011;59323;50.874;7.028;2023-02-10T01:31:16;39.77;;;14.27;;
71503;SDS011;59323;50.874;7.028;2023-02-10T01:33:44;34.45;;;14.60;;
71503;SDS011;59323;50.874;7.028;2023-02-10T01:36:12;34.83;;;14.43;;
71503;SDS011;59323;50.874;7.028;2023-02-10T01:38:40;31.38;;;13.88;;
71503;SDS011;59323;50.874;7.028;2023-02-10T01:41:07;35.10;;;13.60;;
71503;SDS011;59323;50.874;7.028;2023-02-10T01:43:33;37.90;;;14.60;;
71503;SDS011;59323;50.874;7.028;2023-02-10T01:46:17;32.55;;;13.25;;
71503;SDS011;59323;50.874;7.028;2023-02-10T01:48:43;31.30;;;12.73;;
71503;SDS011;59323;50.874;7.028;2023-02-10T01:51:08;33.93;;;13.87;;
71503;SDS011;59323;50.874;7.028;2023-02-10T01:53:34;37.27;;;15.07;;
71503;SDS011;59323;50.874;7.028;2023-02-10T01:55:59;36.73;;;14.70;;
71503;SDS011;59323;50.874;7.028;2023-02-10T01:58:27;35.53;;;14.63;;
71503;SDS011;59323;50.874;7.028;2023-02-10T02:00:56;34.10;;;14.48;;
71503;SDS011;59323;50.874;7.028;2023-02-10T02:03:21;31.80;;;13.57;;
71503;SDS011;59323;50.874;7.028;2023-02-10T02:05:47;34.97;;;14.25;;
71503;SDS011;59323;50.874;7.028;2023-02-10T02:08:16;33.90;;;14.00;;
71503;SDS011;59323;50.874;7.028;2023-02-10T02:16:30;34.40;;;14.23;;
71503;SDS011;59323;50.874;7.028;2023-02-10T02:22:00;35.78;;;14.55;;
71503;SDS011;59323;50.874;7.028;2023-02-10T02:24:32;37.72;;;14.18;;
71503;SDS011;59323;50.874;7.028;2023-02-10T02:27:35;36.50;;;14.77;;
71503;SDS011;59323;50.874;7.028;2023-02-10T02:33:47;34.78;;;14.43;;
71503;SDS011;59323;50.874;7.028;2023-02-10T02:36:21;33.90;;;14.25;;
71503;SDS011;59323;50.874;7.028;2023-02-10T02:38:57;36.20;;;14.60;;
71503;SDS011;59323;50.874;7.028;2023-02-10T02:41:24;39.40;;;15.37;;
71503;SDS011;59323;50.874;7.028;2023-02-10T02:43:50;36.00;;;14.93;;
71503;SDS011;59323;50.874;7.028;2023-02-10T02:52:02;33.92;;;14.45;;
71503;SDS011;59323;50.874;7.028;2023-02-10T02:54:34;34.40;;;14.03;;
71503;SDS011;59323;50.874;7.028;2023-02-10T02:57:27;32.53;;;14.43;;
71503;SDS011;59323;50.874;7.028;2023-02-10T03:00:19;40.75;;;16.02;;
71503;SDS011;59323;50.874;7.028;2023-02-10T03:02:48;32.85;;;14.57;;
71503;SDS011;59323;50.874;7.028;2023-02-10T03:05:21;37.73;;;17.13;;
71503;SDS011;59323;50.874;7.028;2023-02-10T03:07:48;35.85;;;15.98;;
71503;SDS011;59323;50.874;7.028;2023-02-10T03:10:14;36.67;;;15.18;;
71503;SDS011;59323;50.874;7.028;2023-02-10T03:12:39;40.30;;;15.10;;
71503;SDS011;59323;50.874;7.028;2023-02-10T03:15:05;39.00;;;15.70;;
71503;SDS011;59323;50.874;7.028;2023-02-10T03:17:30;42.33;;;15.80;;
71503;SDS011;59323;50.874;7.028;2023-02-10T03:19:56;35.60;;;15.77;;
71503;SDS011;59323;50.874;7.028;2023-02-10T03:22:21;32.03;;;14.50;;
71503;SDS011;59323;50.874;7.028;2023-02-10T03:24:46;32.67;;;13.37;;
71503;SDS011;59323;50.874;7.028;2023-02-10T03:27:12;37.60;;;14.33;;
71503;SDS011;59323;50.874;7.028;2023-02-10T03:29:37;34.65;;;14.10;;
71503;SDS011;59323;50.874;7.028;2023-02-10T03:32:03;33.83;;;14.23;;
71503;SDS011;59323;50.874;7.028;2023-02-10T03:34:30;35.67;;;14.95;;
71503;SDS011;59323;50.874;7.028;2023-02-10T03:36:55;37.83;;;14.87;;
71503;SDS011;59323;50.874;7.028;2023-02-10T03:39:21;34.90;;;14.93;;
71503;SDS011;59323;50.874;7.028;2023-02-10T03:41:46;39.37;;;14.97;;
71503;SDS011;59323;50.874;7.028;2023-02-10T03:44:11;35.15;;;14.48;;
71503;SDS011;59323;50.874;7.028;2023-02-10T03:46:37;36.03;;;13.93;;
71503;SDS011;59323;50.874;7.028;2023-02-10T03:49:03;33.43;;;13.43;;
71503;SDS011;59323;50.874;7.028;2023-02-10T03:51:29;38.33;;;13.73;;
71503;SDS011;59323;50.874;7.028;2023-02-10T03:53:54;33.70;;;14.37;;
71503;SDS011;59323;50.874;7.028;2023-02-10T03:56:19;33.30;;;13.13;;
71503;SDS011;59323;50.874;7.028;2023-02-10T03:58:45;31.17;;;13.40;;
71503;SDS011;59323;50.874;7.028;2023-02-10T04:01:11;37.43;;;15.07;;
71503;SDS011;59323;50.874;7.028;2023-02-10T04:03:38;37.75;;;14.48;;
71503;SDS011;59323;50.874;7.028;2023-02-10T04:06:04;32.08;;;13.10;;
71503;SDS011;59323;50.874;7.028;2023-02-10T04:08:29;42.47;;;15.07;;
71503;SDS011;59323;50.874;7.028;2023-02-10T04:10:54;33.73;;;14.47;;
71503;SDS011;59323;50.874;7.028;2023-02-10T04:13:20;42.53;;;15.47;;
71503;SDS011;59323;50.874;7.028;2023-02-10T04:15:45;40.13;;;14.70;;
71503;SDS011;59323;50.874;7.028;2023-02-10T04:18:10;34.25;;;14.43;;
71503;SDS011;59323;50.874;7.028;2023-02-10T04:20:36;34.10;;;14.57;;
71503;SDS011;59323;50.874;7.028;2023-02-10T04:23:01;38.57;;;15.00;;
71503;SDS011;59323;50.874;7.028;2023-02-10T04:25:27;39.13;;;15.20;;
71503;SDS011;59323;50.874;7.028;2023-02-10T04:27:52;39.97;;;14.67;;
71503;SDS011;59323;50.874;7.028;2023-02-10T04:30:17;36.97;;;14.52;;
71503;SDS011;59323;50.874;7.028;2023-02-10T04:32:43;34.23;;;14.50;;
71503;SDS011;59323;50.874;7.028;2023-02-10T04:35:08;35.37;;;14.33;;
71503;SDS011;59323;50.874;7.028;2023-02-10T04:37:33;42.63;;;15.93;;
71503;SDS011;59323;50.874;7.028;2023-02-10T04:39:59;41.97;;;16.97;;
71503;SDS011;59323;50.874;7.028;2023-02-10T04:42:24;43.00;;;15.77;;
71503;SDS011;59323;50.874;7.028;2023-02-10T04:44:55;39.08;;;14.40;;
71503;SDS011;59323;50.874;7.028;2023-02-10T04:47:24;37.97;;;15.05;;
71503;SDS011;59323;50.874;7.028;2023-02-10T04:49:51;42.25;;;16.40;;
71503;SDS011;59323;50.874;7.028;2023-02-10T04:52:16;39.70;;;14.70;;
71503;SDS011;59323;50.874;7.028;2023-02-10T04:54:41;39.03;;;15.97;;
71503;SDS011;59323;50.874;7.028;2023-02-10T04:57:07;41.27;;;15.67;;
71503;SDS011;59323;50.874;7.028;2023-02-10T04:59:32;37.47;;;14.17;;
71503;SDS011;59323;50.874;7.028;2023-02-10T05:01:57;35.63;;;13.83;;
71503;SDS011;59323;50.874;7.028;2023-02-10T05:04:23;35.67;;;13.13;;
71503;SDS011;59323;50.874;7.028;2023-02-10T05:06:48;38.13;;;14.07;;
71503;SDS011;59323;50.874;7.028;2023-02-10T05:09:13;36.53;;;13.87;;
71503;SDS011;59323;50.874;7.028;2023-02-10T05:11:39;36.93;;;15.13;;
71503;SDS011;59323;50.874;7.028;2023-02-10T05:14:04;34.87;;;14.30;;
71503;SDS011;59323;50.874;7.028;2023-02-10T05:16:30;37.97;;;14.00;;
71503;SDS011;59323;50.874;7.028;2023-02-10T05:18:55;35.93;;;14.63;;
71503;SDS011;59323;50.874;7.028;2023-02-10T05:21:20;32.93;;;13.13;;
71503;SDS011;59323;50.874;7.028;2023-02-10T05:23:46;36.77;;;13.67;;
71503;SDS011;59323;50.874;7.028;2023-02-10T05:26:11;36.07;;;13.17;;
71503;SDS011;59323;50.874;7.028;2023-02-10T05:28:36;31.58;;;13.73;;
71503;SDS011;59323;50.874;7.028;2023-02-10T05:31:02;32.40;;;12.20;;
71503;SDS011;59323;50.874;7.028;2023-02-10T05:33:31;38.08;;;14.95;;
71503;SDS011;59323;50.874;7.028;2023-02-10T05:35:56;38.90;;;14.60;;
71503;SDS011;59323;50.874;7.028;2023-02-10T05:38:22;37.97;;;13.70;;
71503;SDS011;59323;50.874;7.028;2023-02-10T05:40:48;34.27;;;15.20;;
71503;SDS011;59323;50.874;7.028;2023-02-10T05:43:14;39.83;;;15.23;;
71503;SDS011;59323;50.874;7.028;2023-02-10T05:45:39;37.50;;;15.67;;
71503;SDS011;59323;50.874;7.028;2023-02-10T05:48:06;40.40;;;15.10;;
71503;SDS011;59323;50.874;7.028;2023-02-10T05:50:33;37.72;;;15.32;;
71503;SDS011;59323;50.874;7.028;2023-02-10T05:52:58;37.33;;;14.50;;
71503;SDS011;59323;50.874;7.028;2023-02-10T05:55:24;40.05;;;14.65;;
71503;SDS011;59323;50.874;7.028;2023-02-10T05:57:50;38.53;;;15.00;;
71503;SDS011;59323;50.874;7.028;2023-02-10T06:00:17;35.27;;;13.80;;
71503;SDS011;59323;50.874;7.028;2023-02-10T06:02:42;35.88;;;13.85;;
71503;SDS011;59323;50.874;7.028;2023-02-10T06:05:08;37.00;;;15.00;;
71503;SDS011;59323;50.874;7.028;2023-02-10T06:07:33;38.80;;;14.87;;
71503;SDS011;59323;50.874;7.028;2023-02-10T06:09:58;40.57;;;15.87;;
71503;SDS011;59323;50.874;7.028;2023-02-10T06:12:23;35.85;;;14.20;;
71503;SDS011;59323;50.874;7.028;2023-02-10T06:14:49;35.27;;;13.97;;
71503;SDS011;59323;50.874;7.028;2023-02-10T06:17:14;37.70;;;14.10;;
71503;SDS011;59323;50.874;7.028;2023-02-10T06:19:39;35.23;;;14.00;;
71503;SDS011;59323;50.874;7.028;2023-02-10T06:22:06;32.10;;;12.40;;
71503;SDS011;59323;50.874;7.028;2023-02-10T06:24:32;33.67;;;13.88;;
71503;SDS011;59323;50.874;7.028;2023-02-10T06:26:58;33.20;;;14.10;;
71503;SDS011;59323;50.874;7.028;2023-02-10T06:29:23;36.00;;;13.33;;
71503;SDS011;59323;50.874;7.028;2023-02-10T06:31:49;32.33;;;13.70;;
71503;SDS011;59323;50.874;7.028;2023-02-10T06:34:14;39.90;;;15.23;;
71503;SDS011;59323;50.874;7.028;2023-02-10T06:36:40;34.00;;;13.73;;
71503;SDS011;59323;50.874;7.028;2023-02-10T06:39:05;38.67;;;14.57;;
71503;SDS011;59323;50.874;7.028;2023-02-10T06:41:31;35.85;;;14.85;;
71503;SDS011;59323;50.874;7.028;2023-02-10T06:43:57;34.20;;;13.63;;
71503;SDS011;59323;50.874;7.028;2023-02-10T06:46:22;36.03;;;13.43;;
71503;SDS011;59323;50.874;7.028;2023-02-10T06:48:48;34.93;;;15.13;;
71503;SDS011;59323;50.874;7.028;2023-02-10T06:51:13;38.17;;;14.80;;
71503;SDS011;59323;50.874;7.028;2023-02-10T06:53:39;34.28;;;14.40;;
71503;SDS011;59323;50.874;7.028;2023-02-10T06:56:05;40.13;;;15.47;;
71503;SDS011;59323;50.874;7.028;2023-02-10T06:58:31;33.38;;;14.15;;
71503;SDS011;59323;50.874;7.028;2023-02-10T07:00:56;34.43;;;14.23;;
71503;SDS011;59323;50.874;7.028;2023-02-10T07:03:23;40.72;;;16.17;;
71503;SDS011;59323;50.874;7.028;2023-02-10T07:05:49;37.20;;;14.20;;
71503;SDS011;59323;50.874;7.028;2023-02-10T07:08:15;34.73;;;14.33;;
71503;SDS011;59323;50.874;7.028;2023-02-10T07:10:41;37.35;;;15.98;;
71503;SDS011;59323;50.874;7.028;2023-02-10T07:13:06;39.10;;;15.77;;
71503;SDS011;59323;50.874;7.028;2023-02-10T07:15:31;32.37;;;13.73;;
71503;SDS011;59323;50.874;7.028;2023-02-10T07:17:57;35.10;;;13.63;;
71503;SDS011;59323;50.874;7.028;2023-02-10T07:20:22;41.33;;;14.73;;
71503;SDS011;59323;50.874;7.028;2023-02-10T07:22:49;39.08;;;14.75;;
71503;SDS011;59323;50.874;7.028;2023-02-10T07:25:16;39.45;;;16.02;;
71503;SDS011;59323;50.874;7.028;2023-02-10T07:27:42;40.50;;;15.63;;
71503;SDS011;59323;50.874;7.028;2023-02-10T07:30:08;38.65;;;15.48;;
71503;SDS011;59323;50.874;7.028;2023-02-10T07:32:36;40.63;;;16.35;;
71503;SDS011;59323;50.874;7.028;2023-02-10T07:35:02;41.22;;;15.00;;
71503;SDS011;59323;50.874;7.028;2023-02-10T07:37:28;34.88;;;15.98;;
71503;SDS011;59323;50.874;7.028;2023-02-10T07:39:54;40.43;;;16.60;;
71503;SDS011;59323;50.874;7.028;2023-02-10T07:42:19;43.00;;;17.50;;
71503;SDS011;59323;50.874;7.028;2023-02-10T07:44:44;40.43;;;16.57;;
71503;SDS011;59323;50.874;7.028;2023-02-10T07:47:10;43.03;;;17.00;;
71503;SDS011;59323;50.874;7.028;2023-02-10T07:49:35;40.27;;;16.53;;
71503;SDS011;59323;50.874;7.028;2023-02-10T07:52:01;36.33;;;14.98;;
71503;SDS011;59323;50.874;7.028;2023-02-10T07:54:26;39.40;;;16.07;;
71503;SDS011;59323;50.874;7.028;2023-02-10T07:56:53;41.25;;;16.10;;
71503;SDS011;59323;50.874;7.028;2023-02-10T07:59:18;38.00;;;16.47;;
71503;SDS011;59323;50.874;7.028;2023-02-10T08:01:43;39.73;;;16.20;;
71503;SDS011;59323;50.874;7.028;2023-02-10T08:04:10;36.72;;;16.23;;
71503;SDS011;59323;50.874;7.028;2023-02-10T08:06:35;43.80;;;16.30;;
71503;SDS011;59323;50.874;7.028;2023-02-10T08:09:01;38.95;;;16.58;;
71503;SDS011;59323;50.874;7.028;2023-02-10T08:11:27;34.97;;;14.98;;
71503;SDS011;59323;50.874;7.028;2023-02-10T08:13:52;34.37;;;15.13;;
71503;SDS011;59323;50.874;7.028;2023-02-10T08:16:17;36.87;;;14.97;;
71503;SDS011;59323;50.874;7.028;2023-02-10T08:18:43;38.37;;;15.73;;
71503;SDS011;59323;50.874;7.028;2023-02-10T08:21:08;39.40;;;15.17;;
71503;SDS011;59323;50.874;7.028;2023-02-10T08:23:34;38.80;;;15.38;;
71503;SDS011;59323;50.874;7.028;2023-02-10T08:26:07;40.60;;;16.03;;
71503;SDS011;59323;50.874;7.028;2023-02-10T08:28:34;39.63;;;15.55;;
71503;SDS011;59323;50.874;7.028;2023-02-10T08:31:01;37.97;;;16.73;;
71503;SDS011;59323;50.874;7.028;2023-02-10T08:33:27;41.60;;;16.17;;
71503;SDS011;59323;50.874;7.028;2023-02-10T08:35:52;40.97;;;15.47;;
71503;SDS011;59323;50.874;7.028;2023-02-10T08:38:18;36.00;;;14.97;;
71503;SDS011;59323;50.874;7.028;2023-02-10T08:40:43;39.27;;;16.03;;
71503;SDS011;59323;50.874;7.028;2023-02-10T08:43:08;40.13;;;15.60;;
71503;SDS011;59323;50.874;7.028;2023-02-10T08:45:34;38.93;;;16.30;;
71503;SDS011;59323;50.874;7.028;2023-02-10T08:47:59;39.07;;;15.40;;
71503;SDS011;59323;50.874;7.028;2023-02-10T08:50:26;36.92;;;14.75;;
71503;SDS011;59323;50.874;7.028;2023-02-10T08:52:51;38.63;;;14.83;;
71503;SDS011;59323;50.874;7.028;2023-02-10T08:55:17;38.30;;;16.10;;
71503;SDS011;59323;50.874;7.028;2023-02-10T08:57:43;38.20;;;15.67;;
71503;SDS011;59323;50.874;7.028;2023-02-10T09:00:09;39.35;;;15.88;;
71503;SDS011;59323;50.874;7.028;2023-02-10T09:02:35;45.50;;;16.65;;
71503;SDS011;59323;50.874;7.028;2023-02-10T09:05:00;35.60;;;16.10;;
71503;SDS011;59323;50.874;7.028;2023-02-10T09:07:26;37.63;;;16.02;;
71503;SDS011;59323;50.874;7.028;2023-02-10T09:09:51;39.70;;;15.30;;
71503;SDS011;59323;50.874;7.028;2023-02-10T09:12:17;41.17;;;16.23;;
71503;SDS011;59323;50.874;7.028;2023-02-10T09:14:42;38.30;;;16.13;;
71503;SDS011;59323;50.874;7.028;2023-02-10T09:17:07;37.17;;;14.67;;
71503;SDS011;59323;50.874;7.028;2023-02-10T09:19:37;42.80;;;16.80;;
71503;SDS011;59323;50.874;7.028;2023-02-10T09:22:04;41.28;;;17.35;;
71503;SDS011;59323;50.874;7.028;2023-02-10T09:24:30;40.35;;;16.13;;
71503;SDS011;59323;50.874;7.028;2023-02-10T09:26:56;47.63;;;16.67;;
71503;SDS011;59323;50.874;7.028;2023-02-10T09:29:21;40.28;;;16.05;;
71503;SDS011;59323;50.874;7.028;2023-02-10T09:31:47;36.23;;;16.03;;
71503;SDS011;59323;50.874;7.028;2023-02-10T09:34:12;40.63;;;16.10;;
71503;SDS011;59323;50.874;7.028;2023-02-10T09:36:37;42.73;;;17.00;;
71503;SDS011;59323;50.874;7.028;2023-02-10T09:39:03;40.00;;;16.80;;
71503;SDS011;59323;50.874;7.028;2023-02-10T09:41:32;39.03;;;17.07;;
71503;SDS011;59323;50.874;7.028;2023-02-10T09:46:50;38.23;;;15.30;;
71503;SDS011;59323;50.874;7.028;2023-02-10T09:54:43;34.40;;;15.40;;
71503;SDS011;59323;50.874;7.028;2023-02-10T10:00:02;39.60;;;14.75;;
71503;SDS011;59323;50.874;7.028;2023-02-10T10:02:40;37.50;;;15.23;;
71503;SDS011;59323;50.874;7.028;2023-02-10T10:08:39;34.75;;;15.13;;
71503;SDS011;59323;50.874;7.028;2023-02-10T10:11:48;33.50;;;13.13;;
71503;SDS011;59323;50.874;7.028;2023-02-10T10:14:15;35.53;;;13.95;;
71503;SDS011;59323;50.874;7.028;2023-02-10T10:19:32;33.37;;;13.57;;
71503;SDS011;59323;50.874;7.028;2023-02-10T10:27:53;32.97;;;13.85;;
71503;SDS011;59323;50.874;7.028;2023-02-10T10:30:52;33.25;;;13.32;;
71503;SDS011;59323;50.874;7.028;2023-02-10T10:33:24;37.43;;;13.67;;
71503;SDS011;59323;50.874;7.028;2023-02-10T10:35:55;33.08;;;13.65;;
71503;SDS011;59323;50.874;7.028;2023-02-10T10:38:28;30.60;;;13.52;;
71503;SDS011;59323;50.874;7.028;2023-02-10T10:41:04;31.88;;;12.93;;
71503;SDS011;59323;50.874;7.028;2023-02-10T10:43:54;34.15;;;13.43;;
71503;SDS011;59323;50.874;7.028;2023-02-10T10:46:28;31.20;;;13.07;;
71503;SDS011;59323;50.874;7.028;2023-02-10T10:49:00;31.67;;;13.27;;
71503;SDS011;59323;50.874;7.028;2023-02-10T10:51:25;34.60;;;14.35;;
71503;SDS011;59323;50.874;7.028;2023-02-10T10:53:55;31.53;;;13.27;;
71503;SDS011;59323;50.874;7.028;2023-02-10T11:01:50;29.83;;;12.65;;
71503;SDS011;59323;50.874;7.028;2023-02-10T11:04:21;35.08;;;13.27;;
71503;SDS011;59323;50.874;7.028;2023-02-10T11:06:52;29.77;;;11.77;;
71503;SDS011;59323;50.874;7.028;2023-02-10T11:09:39;31.80;;;12.90;;
71503;SDS011;59323;50.874;7.028;2023-02-10T11:12:19;32.72;;;12.77;;
71503;SDS011;59323;50.874;7.028;2023-02-10T11:14:49;30.05;;;12.25;;
71503;SDS011;59323;50.874;7.028;2023-02-10T11:17:38;31.90;;;12.77;;
71503;SDS011;59323;50.874;7.028;2023-02-10T11:20:18;31.00;;;12.63;;
71503;SDS011;59323;50.874;7.028;2023-02-10T11:25:45;27.73;;;11.63;;
71503;SDS011;59323;50.874;7.028;2023-02-10T11:28:17;30.33;;;11.82;;
71503;SDS011;59323;50.874;7.028;2023-02-10T11:30:45;32.63;;;12.98;;
71503;SDS011;59323;50.874;7.028;2023-02-10T11:33:24;28.80;;;12.77;;
71503;SDS011;59323;50.874;7.028;2023-02-10T11:35:54;32.97;;;12.60;;
71503;SDS011;59323;50.874;7.028;2023-02-10T11:38:25;34.28;;;11.75;;
71503;SDS011;59323;50.874;7.028;2023-02-10T11:40:55;29.90;;;12.25;;
71503;SDS011;59323;50.874;7.028;2023-02-10T11:43:30;32.50;;;12.75;;
71503;SDS011;59323;50.874;7.028;2023-02-10T11:46:02;30.63;;;11.90;;
71503;SDS011;59323;50.874;7.028;2023-02-10T11:48:30;33.38;;;13.15;;
71503;SDS011;59323;50.874;7.028;2023-02-10T11:51:04;32.35;;;12.52;;
71503;SDS011;59323;50.874;7.028;2023-02-10T11:53:41;32.55;;;12.55;;
71503;SDS011;59323;50.874;7.028;2023-02-10T11:56:23;31.95;;;11.90;;
71503;SDS011;59323;50.874;7.028;2023-02-10T12:05:00;33.97;;;12.82;;
71503;SDS011;59323;50.874;7.028;2023-02-10T12:13:02;33.40;;;13.13;;
71503;SDS011;59323;50.874;7.028;2023-02-10T12:16:04;33.50;;;12.48;;
71503;SDS011;59323;50.874;7.028;2023-02-10T12:18:58;32.15;;;13.07;;
71503;SDS011;59323;50.874;7.028;2023-02-10T12:21:42;35.78;;;14.10;;
71503;SDS011;59323;50.874;7.028;2023-02-10T12:26:50;35.60;;;14.87;;
71503;SDS011;59323;50.874;7.028;2023-02-10T12:32:31;37.45;;;14.32;;
71503;SDS011;59323;50.874;7.028;2023-02-10T12:41:11;40.47;;;15.57;;
71503;SDS011;59323;50.874;7.028;2023-02-10T12:44:00;33.73;;;13.50;;
71503;SDS011;59323;50.874;7.028;2023-02-10T12:46:45;32.40;;;12.45;;
71503;SDS011;59323;50.874;7.028;2023-02-10T12:49:18;32.72;;;12.93;;
71503;SDS011;59323;50.874;7.028;2023-02-10T12:54:46;29.90;;;12.38;;
71503;SDS011;59323;50.874;7.028;2023-02-10T12:59:59;27.63;;;11.75;;
71503;SDS011;59323;50.874;7.028;2023-02-10T13:05:01;32.25;;;12.63;;
71503;SDS011;59323;50.874;7.028;2023-02-10T13:12:45;26.42;;;12.07;;
71503;SDS011;59323;50.874;7.028;2023-02-10T13:17:49;24.33;;;10.90;;
71503;SDS011;59323;50.874;7.028;2023-02-10T13:23:38;29.43;;;11.30;;
71503;SDS011;59323;50.874;7.028;2023-02-10T13:29:15;24.85;;;9.75;;
71503;SDS011;59323;50.874;7.028;2023-02-10T13:34:27;26.88;;;10.50;;
71503;SDS011;59323;50.874;7.028;2023-02-10T13:37:05;25.50;;;10.37;;
71503;SDS011;59323;50.874;7.028;2023-02-10T13:39:36;26.67;;;10.38;;
71503;SDS011;59323;50.874;7.028;2023-02-10T13:42:05;20.10;;;9.00;;
71503;SDS011;59323;50.874;7.028;2023-02-10T13:44:39;28.48;;;10.35;;
71503;SDS011;59323;50.874;7.028;2023-02-10T13:49:33;24.93;;;9.63;;
71503;SDS011;59323;50.874;7.028;2023-02-10T13:52:14;27.98;;;11.50;;
71503;SDS011;59323;50.874;7.028;2023-02-10T13:54:52;23.90;;;10.40;;
71503;SDS011;59323;50.874;7.028;2023-02-10T13:57:26;25.17;;;10.95;;
71503;SDS011;59323;50.874;7.028;2023-02-10T14:00:04;27.05;;;11.32;;
71503;SDS011;59323;50.874;7.028;2023-02-10T14:10:57;25.75;;;10.85;;
71503;SDS011;59323;50.874;7.028;2023-02-10T14:13:24;28.63;;;12.10;;
71503;SDS011;59323;50.874;7.028;2023-02-10T14:15:59;28.45;;;10.68;;
71503;SDS011;59323;50.874;7.028;2023-02-10T14:18:31;24.92;;;10.70;;
71503;SDS011;59323;50.874;7.028;2023-02-10T14:23:30;24.27;;;10.65;;
71503;SDS011;59323;50.874;7.028;2023-02-10T14:25:59;24.90;;;10.90;;
71503;SDS011;59323;50.874;7.028;2023-02-10T14:28:30;27.70;;;10.63;;
71503;SDS011;59323;50.874;7.028;2023-02-10T14:31:00;24.80;;;10.57;;
71503;SDS011;59323;50.874;7.028;2023-02-10T14:33:32;25.60;;;11.43;;
71503;SDS011;59323;50.874;7.028;2023-02-10T14:36:00;23.73;;;10.20;;
71503;SDS011;59323;50.874;7.028;2023-02-10T14:38:30;23.35;;;11.27;;
71503;SDS011;59323;50.874;7.028;2023-02-10T14:40:59;23.55;;;10.77;;
71503;SDS011;59323;50.874;7.028;2023-02-10T14:43:26;23.38;;;11.13;;
71503;SDS011;59323;50.874;7.028;2023-02-10T14:45:54;23.00;;;10.80;;
71503;SDS011;59323;50.874;7.028;2023-02-10T14:48:23;21.02;;;10.30;;
71503;SDS011;59323;50.874;7.028;2023-02-10T14:50:56;25.20;;;11.60;;
71503;SDS011;59323;50.874;7.028;2023-02-10T14:53:26;24.88;;;11.23;;
71503;SDS011;59323;50.874;7.028;2023-02-10T14:55:54;23.55;;;10.13;;
71503;SDS011;59323;50.874;7.028;2023-02-10T14:58:20;25.53;;;10.77;;
71503;SDS011;59323;50.874;7.028;2023-02-10T15:00:53;26.02;;;10.65;;
71503;SDS011;59323;50.874;7.028;2023-02-10T15:03:30;24.58;;;10.25;;
71503;SDS011;59323;50.874;7.028;2023-02-10T15:05:57;27.42;;;12.07;;
71503;SDS011;59323;50.874;7.028;2023-02-10T15:08:36;23.25;;;10.90;;
71503;SDS011;59323;50.874;7.028;2023-02-10T15:11:06;25.07;;;11.30;;
71503;SDS011;59323;50.874;7.028;2023-02-10T15:13:40;23.20;;;9.93;;
71503;SDS011;59323;50.874;7.028;2023-02-10T15:16:12;20.35;;;9.13;;
71503;SDS011;59323;50.874;7.028;2023-02-10T15:18:41;23.67;;;9.27;;
71503;SDS011;59323;50.874;7.028;2023-02-10T15:21:23;22.38;;;8.77;;
71503;SDS011;59323;50.874;7.028;2023-02-10T15:23:52;21.07;;;9.00;;
71503;SDS011;59323;50.874;7.028;2023-02-10T15:26:24;19.10;;;8.98;;
71503;SDS011;59323;50.874;7.028;2023-02-10T15:29:11;21.60;;;9.03;;
71503;SDS011;59323;50.874;7.028;2023-02-10T15:31:38;18.52;;;8.23;;
71503;SDS011;59323;50.874;7.028;2023-02-10T15:36:50;19.15;;;8.85;;
71503;SDS011;59323;50.874;7.028;2023-02-10T15:39:22;20.88;;;9.10;;
71503;SDS011;59323;50.874;7.028;2023-02-10T15:46:43;17.83;;;8.07;;
71503;SDS011;59323;50.874;7.028;2023-02-10T15:49:13;19.10;;;8.10;;
71503;SDS011;59323;50.874;7.028;2023-02-10T15:51:45;18.90;;;8.45;;
71503;SDS011;59323;50.874;7.028;2023-02-10T15:54:16;20.25;;;8.77;;
71503;SDS011;59323;50.874;7.028;2023-02-10T15:56:53;21.70;;;8.85;;
71503;SDS011;59323;50.874;7.028;2023-02-10T15:59:20;22.77;;;9.65;;
71503;SDS011;59323;50.874;7.028;2023-02-10T16:01:49;21.73;;;8.97;;
71503;SDS011;59323;50.874;7.028;2023-02-10T16:04:14;22.35;;;9.60;;
71503;SDS011;59323;50.874;7.028;2023-02-10T16:06:40;25.00;;;10.18;;
71503;SDS011;59323;50.874;7.028;2023-02-10T16:09:06;21.80;;;9.43;;
71503;SDS011;59323;50.874;7.028;2023-02-10T16:11:31;20.97;;;9.00;;
71503;SDS011;59323;50.874;7.028;2023-02-10T16:13:57;26.83;;;10.30;;
71503;SDS011;59323;50.874;7.028;2023-02-10T16:16:22;22.27;;;8.85;;
71503;SDS011;59323;50.874;7.028;2023-02-10T16:18:48;20.77;;;9.57;;
71503;SDS011;59323;50.874;7.028;2023-02-10T16:21:13;22.33;;;9.30;;
71503;SDS011;59323;50.874;7.028;2023-02-10T16:23:39;27.88;;;10.68;;
71503;SDS011;59323;50.874;7.028;2023-02-10T16:26:05;19.83;;;8.60;;
71503;SDS011;59323;50.874;7.028;2023-02-10T16:28:31;17.73;;;8.47;;
71503;SDS011;59323;50.874;7.028;2023-02-10T16:30:56;23.20;;;9.13;;